Aviation Digital Data Service (ADDS)

Output produced by METARs form (0343 UTC 07 February 2016)
found at http://aviationweather.gov/adds/metars/
 
KBDL 062340Z 0700/0806 18008KT P6SM FEW100 SCT200 
     FM070300 20005KT P6SM SCT200 
     FM071100 00000KT P6SM FEW250 
     FM080300 03006KT P6SM SCT200